Time;durP1;ratioP1;P1;durP2;ratioP2;P2;SDS_P1;SDS_P2;PMS_P1;PMS_P2;Temp;Humidity;BMP_temperature;BMP_pressure;BME280_temperature;BME280_humidity;BME280_pressure;Samples;Min_cycle;Max_cycle;Signal;HPM_P1;HPM_P2
2022/07/10 00:01:57;;;;;;;20.98;2.83;;;12.80;99.90;;;;;;5025311;28;20239;-85
2022/07/10 00:04:28;;;;;;;15.77;2.28;;;12.90;99.90;;;;;;5019608;28;20191;-82
2022/07/10 00:07:01;;;;;;;18.10;2.75;;;12.90;99.90;;;;;;5033277;28;20596;-84
2022/07/10 00:09:32;;;;;;;19.55;2.70;;;12.90;99.90;;;;;;5023288;28;20190;-84
2022/07/10 00:12:03;;;;;;;13.48;2.30;;;12.90;99.90;;;;;;5030097;28;20198;-85
2022/07/10 00:14:34;;;;;;;12.80;2.00;;;12.80;99.90;;;;;;5028413;28;20199;-85
2022/07/10 00:17:05;;;;;;;15.00;2.00;;;12.80;99.90;;;;;;5030105;28;20194;-84
2022/07/10 00:19:38;;;;;;;12.32;2.45;;;12.70;99.90;;;;;;5030338;28;20194;-84
2022/07/10 00:22:11;;;;;;;17.20;2.28;;;12.60;99.90;;;;;;5025086;28;20195;-84
2022/07/10 00:24:42;;;;;;;20.95;2.90;;;12.60;99.90;;;;;;5021716;28;20187;-83
2022/07/10 00:27:12;;;;;;;18.23;2.65;;;12.60;99.90;;;;;;5016350;28;20222;-82
2022/07/10 00:29:43;;;;;;;18.15;2.92;;;12.70;99.90;;;;;;5030169;28;20190;-81
2022/07/10 00:32:14;;;;;;;29.77;8.38;;;12.50;99.90;;;;;;5028713;28;20194;-80
2022/07/10 00:34:44;;;;;;;34.97;12.82;;;12.50;99.90;;;;;;5032117;28;20685;-81
2022/07/10 00:37:17;;;;;;;35.47;11.52;;;12.50;99.90;;;;;;5027894;28;20749;-82
2022/07/10 00:39:48;;;;;;;24.52;3.17;;;12.60;99.90;;;;;;5030674;28;20225;-84
2022/07/10 00:42:19;;;;;;;22.73;3.10;;;12.70;99.90;;;;;;5009814;28;20198;-78
2022/07/10 00:44:50;;;;;;;18.23;2.80;;;12.80;99.90;;;;;;5031220;28;20194;-78
2022/07/10 00:47:24;;;;;;;16.45;2.90;;;12.80;99.90;;;;;;5025295;28;20210;-78
2022/07/10 00:49:55;;;;;;;19.42;2.88;;;12.80;99.90;;;;;;5029102;28;20191;-79
2022/07/10 00:52:27;;;;;;;15.85;3.00;;;12.90;99.90;;;;;;5021737;28;20597;-80
2022/07/10 00:54:59;;;;;;;14.20;2.45;;;12.90;99.90;;;;;;5024511;28;20593;-82
2022/07/10 00:57:30;;;;;;;16.70;2.70;;;12.90;99.90;;;;;;5025753;28;20202;-83
2022/07/10 01:00:00;;;;;;;16.88;2.42;;;13.00;99.90;;;;;;5032551;28;20183;-81
2022/07/10 01:02:31;;;;;;;16.98;2.55;;;13.00;99.90;;;;;;5036189;28;20202;-79
2022/07/10 01:05:02;;;;;;;10.93;2.10;;;13.10;99.90;;;;;;5036781;28;20194;-79
2022/07/10 01:07:34;;;;;;;13.15;1.83;;;13.10;99.90;;;;;;5036091;28;20639;-77
2022/07/10 01:10:05;;;;;;;11.15;1.65;;;13.00;99.90;;;;;;5026450;28;20183;-78
2022/07/10 01:12:36;;;;;;;14.13;1.60;;;12.90;99.90;;;;;;5033030;28;20194;-80
2022/07/10 01:15:08;;;;;;;13.40;2.42;;;12.90;99.90;;;;;;5027839;28;20206;-78
2022/07/10 01:17:39;;;;;;;16.15;2.15;;;13.00;99.90;;;;;;5033766;28;20642;-79
2022/07/10 01:20:11;;;;;;;14.02;2.20;;;13.10;99.90;;;;;;5034527;28;20190;-79
2022/07/10 01:22:44;;;;;;;16.83;2.20;;;13.20;99.90;;;;;;5028045;28;20197;-79
2022/07/10 01:25:14;;;;;;;9.88;1.40;;;13.20;99.90;;;;;;5025403;28;20183;-81
2022/07/10 01:27:45;;;;;;;10.98;1.60;;;13.20;99.90;;;;;;5033736;28;20232;-81
2022/07/10 01:30:16;;;;;;;12.25;1.40;;;13.20;99.90;;;;;;5031174;28;20601;-81
2022/07/10 01:32:46;;;;;;;11.35;1.30;;;13.30;99.90;;;;;;5017678;28;20651;-80
2022/07/10 01:35:17;;;;;;;10.00;1.27;;;13.30;99.90;;;;;;5033851;28;20664;-81
2022/07/10 01:37:51;;;;;;;8.57;1.40;;;13.50;99.90;;;;;;5027739;28;20199;-81
2022/07/10 01:40:22;;;;;;;7.60;1.17;;;13.60;99.90;;;;;;5028439;28;20650;-81
2022/07/10 01:42:53;;;;;;;6.50;1.15;;;13.70;99.90;;;;;;5034285;28;20198;-83
2022/07/10 01:45:23;;;;;;;10.65;1.48;;;13.80;99.90;;;;;;5034217;28;20202;-83
2022/07/10 01:47:54;;;;;;;7.28;1.20;;;13.80;99.90;;;;;;5023778;28;20206;-83
2022/07/10 01:50:26;;;;;;;6.18;1.20;;;13.90;99.90;;;;;;5027872;28;20202;-81
2022/07/10 01:52:58;;;;;;;7.80;1.25;;;13.90;99.90;;;;;;5035115;28;20190;-81
2022/07/10 01:55:29;;;;;;;9.30;1.73;;;13.70;99.90;;;;;;5034193;28;20672;-85
2022/07/10 01:57:59;;;;;;;10.23;1.60;;;13.50;99.90;;;;;;5035591;28;20281;-81
2022/07/10 02:00:30;;;;;;;14.20;1.63;;;13.40;99.90;;;;;;5030040;28;20203;-80
2022/07/10 02:05:47;;;;;;;12.35;1.77;;;13.20;99.90;;;;;;5028670;28;20205;-80
2022/07/10 02:08:20;;;;;;;15.55;2.03;;;13.20;99.90;;;;;;5029531;28;20642;-81
2022/07/10 02:10:50;;;;;;;10.90;1.75;;;13.20;99.90;;;;;;5033802;28;20562;-81
2022/07/10 02:13:21;;;;;;;14.50;1.75;;;13.40;99.90;;;;;;5033839;28;20537;-82
2022/07/10 02:15:52;;;;;;;9.00;1.30;;;13.70;99.90;;;;;;5035126;28;20199;-82
2022/07/10 02:18:23;;;;;;;9.50;1.35;;;13.90;99.90;;;;;;5034989;28;20187;-82
2022/07/10 02:20:54;;;;;;;10.43;1.55;;;14.20;99.90;;;;;;5028796;28;20206;-82
2022/07/10 02:23:28;;;;;;;10.05;1.58;;;14.50;99.90;;;;;;5033896;28;20194;-82
2022/07/10 02:25:58;;;;;;;10.07;1.70;;;14.60;99.90;;;;;;5030011;28;20289;-83
2022/07/10 02:28:29;;;;;;;12.75;2.05;;;14.70;99.90;;;;;;5025487;28;20190;-86
2022/07/10 02:31:00;;;;;;;13.85;1.83;;;14.70;99.90;;;;;;5027244;28;20197;-81
2022/07/10 02:33:31;;;;;;;10.18;1.63;;;14.60;99.90;;;;;;5033553;28;20187;-83
2022/07/10 02:36:01;;;;;;;13.18;1.90;;;14.50;99.90;;;;;;5034206;28;20230;-84
2022/07/10 02:38:34;;;;;;;6.75;1.58;;;14.60;99.90;;;;;;5025741;28;20217;-84
2022/07/10 02:41:04;;;;;;;9.48;1.58;;;14.60;99.90;;;;;;5034163;28;20194;-84
2022/07/10 02:43:35;;;;;;;14.13;2.15;;;14.70;99.90;;;;;;5033570;28;20206;-85
2022/07/10 02:46:06;;;;;;;10.73;1.80;;;14.70;99.90;;;;;;5038978;28;20218;-80
2022/07/10 02:48:37;;;;;;;14.15;1.77;;;14.70;99.90;;;;;;5025906;28;20214;-78
2022/07/10 02:51:07;;;;;;;12.93;1.65;;;14.70;99.90;;;;;;5034049;28;20195;-81
2022/07/10 02:53:40;;;;;;;6.80;1.40;;;14.60;99.90;;;;;;5021933;28;20197;-85
2022/07/10 02:56:11;;;;;;;10.82;1.58;;;14.60;99.90;;;;;;5015641;28;20575;-84
2022/07/10 02:58:42;;;;;;;9.50;1.50;;;14.60;99.90;;;;;;5024121;28;20269;-81
2022/07/10 03:01:13;;;;;;;9.60;1.25;;;14.60;99.90;;;;;;5030992;28;20193;-81
2022/07/10 03:03:43;;;;;;;9.57;1.50;;;14.50;99.90;;;;;;5021701;28;20187;-81
2022/07/10 03:06:14;;;;;;;9.38;1.42;;;14.50;99.90;;;;;;5031542;28;20213;-84
2022/07/10 03:08:46;;;;;;;8.75;1.35;;;14.60;99.90;;;;;;5028655;28;20679;-88
2022/07/10 03:11:17;;;;;;;8.82;1.40;;;14.60;99.90;;;;;;5014958;28;20186;-86
2022/07/10 03:13:48;;;;;;;7.28;1.67;;;14.60;99.90;;;;;;5029760;28;20205;-86
2022/07/10 03:16:18;;;;;;;13.85;1.40;;;14.60;99.90;;;;;;5026874;28;20712;-83
2022/07/10 03:18:49;;;;;;;10.32;1.52;;;14.70;99.90;;;;;;5027070;28;20592;-88
2022/07/10 03:21:20;;;;;;;7.47;1.50;;;15.00;99.90;;;;;;5028643;28;20202;-88
2022/07/10 03:23:52;;;;;;;7.78;1.38;;;15.00;99.90;;;;;;5030607;28;20195;-88
2022/07/10 03:26:23;;;;;;;7.95;1.23;;;14.90;99.90;;;;;;5032361;28;20206;-86
2022/07/10 03:28:53;;;;;;;6.65;1.05;;;14.70;99.90;;;;;;5030229;28;20191;-85
2022/07/10 03:31:24;;;;;;;5.60;1.17;;;14.50;99.90;;;;;;5030979;28;20194;-80
2022/07/10 03:33:55;;;;;;;8.40;1.00;;;14.40;99.90;;;;;;5033180;28;20587;-84
2022/07/10 03:36:26;;;;;;;6.00;0.93;;;14.40;99.90;;;;;;5031996;28;20236;-83
2022/07/10 03:38:59;;;;;;;7.15;1.15;;;14.40;99.90;;;;;;5030663;28;20190;-83
2022/07/10 03:41:30;;;;;;;8.40;1.42;;;14.40;99.90;;;;;;5032846;28;20195;-81
2022/07/10 03:44:00;;;;;;;4.85;1.05;;;14.40;99.90;;;;;;5033231;28;20190;-89
2022/07/10 03:46:31;;;;;;;7.45;1.30;;;14.50;99.90;;;;;;5022980;28;20218;-86
2022/07/10 03:49:02;;;;;;;6.03;1.50;;;14.60;99.90;;;;;;5032695;28;20559;-87
2022/07/10 03:51:33;;;;;;;6.68;1.17;;;14.60;99.90;;;;;;5029979;28;20198;-88
2022/07/10 03:54:05;;;;;;;4.50;0.88;;;14.60;99.90;;;;;;5022199;28;20213;-82
2022/07/10 03:59:22;;;;;;;6.05;0.88;;;14.50;99.90;;;;;;5029548;28;20189;-83
2022/07/10 04:01:53;;;;;;;4.65;0.90;;;14.40;99.90;;;;;;5028217;28;20205;-81
2022/07/10 04:04:24;;;;;;;9.02;1.10;;;14.30;99.90;;;;;;5028513;28;20194;-81
2022/07/10 04:06:54;;;;;;;6.43;1.02;;;14.10;99.90;;;;;;5031629;28;20221;-85
2022/07/10 04:09:27;;;;;;;9.60;1.40;;;13.80;99.90;;;;;;5031790;28;20203;-82
2022/07/10 04:11:58;;;;;;;4.95;0.98;;;13.70;99.90;;;;;;5029472;28;20224;-82
2022/07/10 04:14:29;;;;;;;8.88;1.40;;;13.70;99.90;;;;;;5027322;28;20659;-82
2022/07/10 04:17:00;;;;;;;6.75;1.20;;;13.60;99.90;;;;;;5027105;28;20229;-82
2022/07/10 04:19:30;;;;;;;10.15;1.25;;;13.50;99.90;;;;;;5030730;28;20203;-83
2022/07/10 04:22:01;;;;;;;11.82;1.42;;;13.50;99.90;;;;;;5030949;28;20198;-83
2022/07/10 04:24:33;;;;;;;10.98;1.67;;;13.50;99.90;;;;;;5029450;28;20198;-83
2022/07/10 04:27:04;;;;;;;7.85;1.40;;;13.60;99.90;;;;;;5022212;28;20226;-79
2022/07/10 04:29:35;;;;;;;8.05;1.23;;;13.60;99.90;;;;;;5014493;28;20203;-86
2022/07/10 04:32:06;;;;;;;8.13;1.42;;;13.70;99.90;;;;;;5015036;28;20196;-85
2022/07/10 04:34:36;;;;;;;6.32;1.17;;;13.70;99.90;;;;;;5032368;28;20221;-80
2022/07/10 04:37:08;;;;;;;13.00;6.38;;;13.70;99.90;;;;;;5030950;28;20240;-87
2022/07/10 04:39:41;;;;;;;24.80;14.32;;;13.70;99.90;;;;;;5032578;28;20654;-83
2022/07/10 04:42:12;;;;;;;14.23;8.02;;;13.50;99.90;;;;;;5024752;28;20187;-81
2022/07/10 04:44:43;;;;;;;5.85;1.30;;;13.40;99.90;;;;;;5030954;28;20198;-80
2022/07/10 04:47:14;;;;;;;4.90;1.27;;;13.20;99.90;;;;;;5032105;28;20254;-82
2022/07/10 04:49:44;;;;;;;3.45;1.15;;;13.00;99.90;;;;;;5025948;28;20654;-82
2022/07/10 04:52:15;;;;;;;6.05;2.25;;;12.90;99.90;;;;;;5017479;28;20665;-81
2022/07/10 04:54:47;;;;;;;5.10;1.30;;;12.80;99.90;;;;;;5022137;28;20559;-83
2022/07/10 04:57:18;;;;;;;4.47;1.00;;;12.80;99.90;;;;;;5013454;28;20193;-84
2022/07/10 04:59:49;;;;;;;4.75;1.40;;;12.70;99.90;;;;;;5023773;28;20201;-83
2022/07/10 05:02:19;;;;;;;5.97;1.52;;;12.70;99.90;;;;;;5032558;28;20187;-81
2022/07/10 05:04:50;;;;;;;5.93;1.73;;;12.70;99.90;;;;;;5029243;28;20209;-81
2022/07/10 05:07:21;;;;;;;5.03;1.10;;;12.70;99.90;;;;;;5026605;28;20229;-83
2022/07/10 05:09:53;;;;;;;6.50;1.27;;;12.70;99.90;;;;;;5013690;28;20206;-83
2022/07/10 05:12:24;;;;;;;5.53;1.30;;;12.80;99.90;;;;;;5021401;28;20187;-80
2022/07/10 05:14:55;;;;;;;6.38;1.40;;;12.80;99.90;;;;;;5013859;28;20654;-84
2022/07/10 05:17:26;;;;;;;7.32;1.20;;;12.90;99.90;;;;;;5016845;28;20229;-85
2022/07/10 05:19:57;;;;;;;4.32;0.80;;;13.00;99.90;;;;;;5028703;28;20234;-83
2022/07/10 05:22:30;;;;;;;6.75;1.50;;;13.00;99.90;;;;;;5030082;28;20226;-84
2022/07/10 05:25:02;;;;;;;7.93;1.23;;;13.10;99.90;;;;;;5027181;28;20216;-82
2022/07/10 05:27:33;;;;;;;6.15;1.55;;;13.10;99.90;;;;;;5026626;28;20681;-88
2022/07/10 05:30:04;;;;;;;8.27;1.42;;;13.20;99.90;;;;;;5029550;28;20191;-79
2022/07/10 05:32:34;;;;;;;5.85;1.20;;;13.10;99.90;;;;;;5028828;28;20637;-83
2022/07/10 05:35:05;;;;;;;6.25;1.15;;;13.10;99.90;;;;;;5027617;28;20237;-79
2022/07/10 05:37:35;;;;;;;6.75;1.30;;;13.10;99.90;;;;;;5031418;28;20234;-79
2022/07/10 05:40:09;;;;;;;8.57;1.70;;;13.10;99.90;;;;;;5027342;28;20194;-80
2022/07/10 05:42:40;;;;;;;8.93;1.50;;;13.00;99.90;;;;;;5030806;28;20195;-78
2022/07/10 05:45:12;;;;;;;3.45;0.90;;;13.00;99.90;;;;;;5030367;28;20190;-86
2022/07/10 05:47:42;;;;;;;6.60;1.30;;;13.00;99.90;;;;;;5033520;28;20206;-86
2022/07/10 05:50:13;;;;;;;4.93;1.15;;;13.00;99.90;;;;;;5026161;28;20195;-88
2022/07/10 05:52:44;;;;;;;6.68;1.33;;;13.00;99.90;;;;;;5032353;28;20187;-80
2022/07/10 05:55:17;;;;;;;8.60;1.50;;;13.00;99.90;;;;;;5023137;28;20655;-86
2022/07/10 05:57:47;;;;;;;8.25;1.70;;;13.00;99.90;;;;;;5033326;28;20236;-84
2022/07/10 06:00:18;;;;;;;5.85;1.20;;;13.00;99.90;;;;;;5026405;28;20199;-89
2022/07/10 06:02:49;;;;;;;5.80;1.52;;;13.00;99.90;;;;;;5034719;28;20709;-85
2022/07/10 06:05:19;;;;;;;7.20;1.60;;;13.10;99.90;;;;;;5033065;28;20210;-85
2022/07/10 06:07:50;;;;;;;4.38;1.10;;;13.20;99.90;;;;;;5032478;28;20229;-87
2022/07/10 06:10:23;;;;;;;5.25;1.05;;;13.10;99.90;;;;;;5032013;28;20210;-88
2022/07/10 06:12:53;;;;;;;5.38;0.80;;;13.00;99.90;;;;;;5030390;28;20209;-88
2022/07/10 06:15:24;;;;;;;7.80;1.00;;;13.00;99.90;;;;;;5031878;28;20191;-88
2022/07/10 06:17:58;;;;;;;2.40;0.70;;;12.90;99.90;;;;;;5035242;28;20198;-93
2022/07/10 06:20:29;;;;;;;3.63;0.93;;;12.90;99.90;;;;;;5030068;28;20198;-90
2022/07/10 06:23:00;;;;;;;5.63;0.85;;;12.80;99.90;;;;;;5029476;28;20202;-86
2022/07/10 06:25:33;;;;;;;5.40;0.85;;;12.80;99.90;;;;;;5032268;28;20198;-88
2022/07/10 06:28:03;;;;;;;5.80;0.80;;;12.80;99.90;;;;;;5032431;28;20226;-86
2022/07/10 06:30:34;;;;;;;5.32;0.90;;;12.70;99.90;;;;;;5032705;28;20194;-87
2022/07/10 06:33:05;;;;;;;4.18;0.90;;;12.70;99.90;;;;;;5028386;28;20199;-79
2022/07/10 06:35:36;;;;;;;5.93;1.10;;;12.70;99.90;;;;;;5027419;28;20205;-84
2022/07/10 06:38:07;;;;;;;4.90;1.27;;;12.60;99.90;;;;;;5031380;28;20195;-85
2022/07/10 06:40:41;;;;;;;6.60;1.10;;;12.60;99.90;;;;;;5032790;28;20213;-87
2022/07/10 06:43:11;;;;;;;5.25;0.93;;;12.60;99.90;;;;;;5028602;28;20205;-86
2022/07/10 06:45:43;;;;;;;5.47;0.90;;;12.60;99.90;;;;;;5030339;28;21400;-81
2022/07/10 06:48:12;;;;;;;2.65;0.77;;;12.60;99.90;;;;;;5029847;28;20221;-91
2022/07/10 06:50:43;;;;;;;5.18;1.05;;;12.60;99.90;;;;;;5029437;28;20206;-83
2022/07/10 06:53:15;;;;;;;7.43;1.10;;;12.60;99.90;;;;;;5032424;28;20205;-86
2022/07/10 06:55:48;;;;;;;7.03;1.10;;;12.50;99.90;;;;;;5033831;28;20281;-89
2022/07/10 06:58:18;;;;;;;4.97;1.23;;;12.50;99.90;;;;;;5029911;28;20221;-82
2022/07/10 07:00:49;;;;;;;9.45;1.50;;;12.50;99.90;;;;;;5028759;28;20657;-83
2022/07/10 07:03:20;;;;;;;6.40;1.30;;;12.60;99.90;;;;;;5026389;28;20195;-78
2022/07/10 07:05:50;;;;;;;10.13;3.17;;;12.60;99.90;;;;;;5027746;28;20198;-79
2022/07/10 07:08:21;;;;;;;13.18;3.13;;;12.60;99.90;;;;;;5031461;28;20218;-79
2022/07/10 07:10:53;;;;;;;10.88;1.65;;;12.60;99.90;;;;;;5031087;28;20588;-80
2022/07/10 07:13:24;;;;;;;5.75;1.55;;;12.50;99.90;;;;;;5031804;28;20194;-81
2022/07/10 07:15:59;;;;;;;7.43;1.77;;;12.50;99.90;;;;;;5026831;28;20199;-83
2022/07/10 07:18:35;;;;;;;7.28;2.03;;;12.50;99.90;;;;;;5025857;28;20202;-82
2022/07/10 07:23:52;;;;;;;7.47;1.98;;;12.50;99.90;;;;;;5027979;28;20284;-83
2022/07/10 07:26:24;;;;;;;4.50;1.65;;;12.50;99.90;;;;;;5026899;28;20194;-83
2022/07/10 07:28:55;;;;;;;7.47;1.60;;;12.50;99.90;;;;;;5032101;28;20218;-84
2022/07/10 07:31:26;;;;;;;5.88;1.30;;;12.50;99.90;;;;;;5027826;28;20195;-84
2022/07/10 07:33:57;;;;;;;8.55;1.90;;;12.40;99.90;;;;;;5029050;28;20222;-83
2022/07/10 07:36:27;;;;;;;6.05;1.60;;;12.40;99.90;;;;;;5027679;28;20565;-83
2022/07/10 07:38:58;;;;;;;4.95;1.30;;;12.40;99.90;;;;;;5029770;28;20206;-83
2022/07/10 07:41:33;;;;;;;6.05;1.50;;;12.40;99.90;;;;;;5025687;28;20197;-83
2022/07/10 07:44:04;;;;;;;5.40;1.67;;;12.40;99.90;;;;;;5024046;28;20661;-84
2022/07/10 07:46:35;;;;;;;5.75;1.60;;;12.30;99.90;;;;;;5029457;28;20203;-83
2022/07/10 07:49:05;;;;;;;11.32;2.30;;;12.40;99.90;;;;;;5028055;28;20222;-84
2022/07/10 07:51:36;;;;;;;11.00;2.55;;;12.40;99.90;;;;;;5027404;28;20206;-81
2022/07/10 07:54:07;;;;;;;6.90;2.28;;;12.40;99.90;;;;;;5028707;28;20201;-80
2022/07/10 07:56:40;;;;;;;9.63;2.50;;;12.30;99.90;;;;;;5025300;28;20198;-80
2022/07/10 07:59:10;;;;;;;8.63;2.58;;;12.20;99.90;;;;;;5028495;28;20194;-83
2022/07/10 08:01:41;;;;;;;11.38;3.15;;;12.30;99.90;;;;;;5025645;28;20206;-82
2022/07/10 08:04:12;;;;;;;9.45;2.60;;;12.20;99.90;;;;;;5027829;28;20574;-83
2022/07/10 08:06:42;;;;;;;10.27;2.53;;;12.20;99.90;;;;;;5023544;28;20198;-81
2022/07/10 08:09:13;;;;;;;9.50;2.53;;;12.20;99.90;;;;;;5027222;28;20555;-81
2022/07/10 08:11:46;;;;;;;9.07;3.15;;;12.20;99.90;;;;;;5029728;28;20320;-82
2022/07/10 08:14:16;;;;;;;6.68;3.00;;;12.10;99.90;;;;;;5029010;28;20195;-83
2022/07/10 08:16:47;;;;;;;7.50;2.67;;;12.10;99.90;;;;;;5029984;28;20199;-83
2022/07/10 08:19:18;;;;;;;6.57;2.88;;;12.10;99.90;;;;;;5031123;28;20213;-82
2022/07/10 08:21:48;;;;;;;12.35;3.35;;;12.00;99.90;;;;;;5028083;28;20201;-83
2022/07/10 08:24:19;;;;;;;9.43;2.95;;;12.00;99.90;;;;;;5030370;28;20622;-84
2022/07/10 08:26:51;;;;;;;10.38;3.20;;;12.00;99.90;;;;;;5031397;28;20695;-84
2022/07/10 08:29:22;;;;;;;8.68;3.75;;;11.90;99.90;;;;;;5024332;28;20218;-87
2022/07/10 08:31:53;;;;;;;9.18;4.20;;;12.00;99.90;;;;;;5026698;28;20195;-86
2022/07/10 08:34:23;;;;;;;8.80;3.40;;;12.00;99.90;;;;;;5026570;28;20222;-87
2022/07/10 08:36:54;;;;;;;8.25;3.05;;;11.90;99.90;;;;;;5029519;28;20233;-85
2022/07/10 08:39:25;;;;;;;7.68;2.83;;;12.00;99.90;;;;;;5027090;28;20272;-86
2022/07/10 08:41:59;;;;;;;9.57;2.85;;;11.90;99.90;;;;;;5024146;28;20728;-84
2022/07/10 08:44:30;;;;;;;7.80;3.00;;;11.90;99.90;;;;;;5030995;28;20317;-85
2022/07/10 08:47:01;;;;;;;9.43;3.35;;;11.90;99.90;;;;;;5030764;28;20633;-84
2022/07/10 08:49:35;;;;;;;11.23;3.20;;;11.90;99.90;;;;;;5028925;28;20563;-85
2022/07/10 08:52:08;;;;;;;7.68;3.33;;;11.90;99.90;;;;;;5026359;28;20194;-85
2022/07/10 08:54:39;;;;;;;10.10;3.28;;;11.90;99.90;;;;;;5028328;28;20208;-86
2022/07/10 08:57:14;;;;;;;10.18;3.35;;;11.90;99.90;;;;;;5027633;28;20205;-85
2022/07/10 08:59:44;;;;;;;5.80;3.20;;;12.00;99.90;;;;;;5030260;28;20205;-84
2022/07/10 09:02:15;;;;;;;11.02;3.38;;;11.90;99.90;;;;;;5028140;28;20552;-84
2022/07/10 09:04:46;;;;;;;117.70;78.28;;;11.90;99.90;;;;;;5025445;28;20194;-85
2022/07/10 09:07:17;;;;;;;277.17;189.40;;;11.90;99.90;;;;;;5028440;28;20186;-86
2022/07/10 09:09:57;;;;;;;51.50;37.47;;;11.90;99.90;;;;;;5021885;28;20210;-86
2022/07/10 09:12:30;;;;;;;15.05;7.15;;;11.90;99.90;;;;;;5026928;28;20273;-85
2022/07/10 09:15:19;;;;;;;9.38;4.60;;;11.90;99.90;;;;;;5027830;28;20190;-85
2022/07/10 09:17:57;;;;;;;16.77;11.25;;;11.90;99.90;;;;;;5029826;28;20237;-85
2022/07/10 09:20:34;;;;;;;10.88;4.32;;;11.90;99.90;;;;;;5026341;28;20202;-85
2022/07/10 09:23:18;;;;;;;9.57;4.43;;;11.90;99.90;;;;;;5034083;28;20190;-85
2022/07/10 09:25:50;;;;;;;5.60;2.75;;;11.90;99.90;;;;;;5029110;28;20186;-85
2022/07/10 09:28:24;;;;;;;11.35;2.92;;;12.00;99.90;;;;;;5030186;28;20210;-85
2022/07/10 09:30:55;;;;;;;10.40;1.63;;;12.00;99.90;;;;;;5013396;28;20214;-86
2022/07/10 09:33:29;;;;;;;8.52;1.70;;;12.00;99.90;;;;;;5032118;28;20221;-87
2022/07/10 09:36:10;;;;;;;6.60;1.73;;;12.00;99.90;;;;;;5032472;28;20230;-87
2022/07/10 09:38:54;;;;;;;7.90;1.70;;;12.10;99.90;;;;;;5029208;28;20198;-89
2022/07/10 09:41:29;;;;;;;3.40;1.20;;;12.10;99.90;;;;;;5031233;28;20667;-84
2022/07/10 09:44:02;;;;;;;7.90;1.80;;;12.10;99.90;;;;;;5034054;28;20193;-86
2022/07/10 09:46:38;;;;;;;8.05;1.48;;;12.10;99.90;;;;;;5033425;28;20264;-87
2022/07/10 09:49:13;;;;;;;4.93;1.48;;;12.10;99.90;;;;;;5035174;28;21145;-88
2022/07/10 09:51:45;;;;;;;7.47;1.52;;;12.10;99.90;;;;;;5035263;28;20201;-87
2022/07/10 09:54:16;;;;;;;6.50;1.80;;;12.10;99.90;;;;;;5030702;28;20577;-86
2022/07/10 09:56:48;;;;;;;5.78;1.70;;;12.10;99.90;;;;;;5035019;28;20194;-85
2022/07/10 09:59:21;;;;;;;7.35;2.15;;;12.10;99.90;;;;;;5024646;28;20285;-82
2022/07/10 10:01:53;;;;;;;6.38;1.80;;;12.10;99.90;;;;;;5027195;28;20191;-82
2022/07/10 10:04:25;;;;;;;5.57;2.03;;;12.10;99.90;;;;;;5031523;28;20196;-81
2022/07/10 10:07:00;;;;;;;4.88;1.40;;;12.10;99.90;;;;;;5027765;28;20628;-82
2022/07/10 10:09:36;;;;;;;7.47;1.70;;;12.10;99.90;;;;;;5024951;28;20752;-83
2022/07/10 10:12:15;;;;;;;4.88;1.60;;;12.10;99.90;;;;;;5029026;28;20216;-84
2022/07/10 10:14:48;;;;;;;7.03;1.48;;;12.10;99.90;;;;;;5033105;28;20194;-84
2022/07/10 10:17:22;;;;;;;9.50;1.70;;;12.00;99.90;;;;;;5032333;28;20676;-84
2022/07/10 10:22:44;;;;;;;8.30;1.48;;;12.10;99.90;;;;;;5030031;28;20284;-85
2022/07/10 10:25:16;;;;;;;7.05;1.73;;;12.10;99.90;;;;;;5030110;28;20719;-85
2022/07/10 10:27:49;;;;;;;6.22;1.40;;;12.00;99.90;;;;;;5033707;28;20204;-84
2022/07/10 10:30:22;;;;;;;10.20;1.70;;;12.00;99.90;;;;;;5028109;28;20226;-83
2022/07/10 10:32:52;;;;;;;10.70;1.58;;;12.00;99.90;;;;;;5028684;28;20202;-85
2022/07/10 10:35:47;;;;;;;7.75;1.55;;;12.00;99.90;;;;;;5031690;28;20217;-85
2022/07/10 10:38:17;;;;;;;7.07;1.75;;;12.00;99.90;;;;;;5031176;28;20194;-86
2022/07/10 10:40:48;;;;;;;11.05;2.10;;;12.00;99.90;;;;;;5030354;28;20204;-85
2022/07/10 10:43:22;;;;;;;6.43;1.88;;;12.00;99.90;;;;;;5034178;28;20202;-85
2022/07/10 10:45:55;;;;;;;8.70;1.88;;;12.00;99.90;;;;;;5031972;28;20201;-86
2022/07/10 10:48:26;;;;;;;12.20;2.13;;;12.00;99.90;;;;;;5033007;28;20197;-86
2022/07/10 10:50:57;;;;;;;5.72;1.73;;;11.90;99.90;;;;;;5033342;28;20210;-86
2022/07/10 10:53:31;;;;;;;5.22;1.63;;;11.90;99.90;;;;;;5034834;28;20229;-85
2022/07/10 10:56:25;;;;;;;6.25;1.33;;;11.90;99.90;;;;;;5034006;28;20198;-88
2022/07/10 10:58:56;;;;;;;8.73;1.92;;;11.90;99.90;;;;;;5031235;28;20612;-88
2022/07/10 11:01:33;;;;;;;4.93;1.30;;;11.90;99.90;;;;;;5020514;28;20191;-87
2022/07/10 11:04:20;;;;;;;7.75;1.50;;;11.90;99.90;;;;;;5033937;28;20206;-87
2022/07/10 11:06:52;;;;;;;6.10;1.55;;;11.90;99.90;;;;;;5033347;28;20189;-88
2022/07/10 11:09:30;;;;;;;7.25;1.70;;;11.90;99.90;;;;;;5033510;28;20214;-88
2022/07/10 11:12:12;;;;;;;6.82;1.50;;;11.80;99.90;;;;;;5025565;28;20211;-86
2022/07/10 11:14:49;;;;;;;6.30;1.70;;;11.70;99.90;;;;;;5034340;28;20692;-87
2022/07/10 11:17:27;;;;;;;11.40;2.35;;;11.80;99.90;;;;;;5028599;28;20194;-88
2022/07/10 11:19:57;;;;;;;8.05;2.10;;;11.70;99.90;;;;;;5021611;28;20198;-88
2022/07/10 11:22:51;;;;;;;8.32;2.03;;;11.70;99.90;;;;;;5028771;28;20677;-88
2022/07/10 11:25:45;;;;;;;4.97;1.80;;;11.60;99.90;;;;;;5033248;28;20202;-88
2022/07/10 11:28:18;;;;;;;9.23;2.17;;;11.60;99.90;;;;;;5026107;28;20562;-87
2022/07/10 11:30:51;;;;;;;7.70;2.00;;;11.50;99.90;;;;;;5033074;28;20305;-88
2022/07/10 11:33:24;;;;;;;8.07;2.38;;;11.50;99.90;;;;;;5032515;28;20221;-87
2022/07/10 11:35:56;;;;;;;3.67;1.92;;;11.40;99.90;;;;;;5033197;28;20252;-87
2022/07/10 11:38:28;;;;;;;6.57;2.40;;;11.40;99.90;;;;;;5027704;28;20190;-87
2022/07/10 11:40:58;;;;;;;6.18;2.45;;;11.40;99.90;;;;;;5031363;28;20199;-87
2022/07/10 11:43:29;;;;;;;7.28;2.72;;;11.50;99.90;;;;;;5031290;28;20578;-89
2022/07/10 11:46:01;;;;;;;5.82;2.67;;;11.40;99.90;;;;;;5019173;28;20201;-88
2022/07/10 11:48:42;;;;;;;9.13;2.60;;;11.40;99.90;;;;;;5031732;28;20233;-89
2022/07/10 11:51:26;;;;;;;7.90;3.03;;;11.40;99.90;;;;;;5028434;28;20260;-86
2022/07/10 11:54:02;;;;;;;6.88;3.13;;;11.40;99.90;;;;;;5026614;28;20716;-87
2022/07/10 11:56:34;;;;;;;6.22;2.60;;;11.40;99.90;;;;;;5027583;28;21875;-85
2022/07/10 11:59:06;;;;;;;7.18;3.00;;;11.40;99.90;;;;;;5023958;28;20217;-86
2022/07/10 12:01:38;;;;;;;10.65;2.83;;;11.30;99.90;;;;;;5024881;28;20203;-89
2022/07/10 12:04:11;;;;;;;7.57;3.05;;;11.40;99.90;;;;;;5026056;28;20203;-85
2022/07/10 12:06:44;;;;;;;8.43;3.15;;;11.30;99.90;;;;;;5032582;28;20205;-87
2022/07/10 12:09:18;;;;;;;5.63;3.15;;;11.30;99.90;;;;;;5030536;28;20225;-86
2022/07/10 12:12:02;;;;;;;7.13;2.97;;;11.30;99.90;;;;;;5027968;28;20197;-87
2022/07/10 12:14:33;;;;;;;5.10;2.90;;;11.30;99.90;;;;;;5023282;28;20204;-86
2022/07/10 12:17:03;;;;;;;6.75;2.97;;;11.20;99.90;;;;;;5027567;28;20203;-86
2022/07/10 12:19:42;;;;;;;8.45;3.42;;;11.20;99.90;;;;;;5025285;28;20205;-87
2022/07/10 12:22:12;;;;;;;8.48;3.42;;;11.20;99.90;;;;;;5018044;28;20208;-85
2022/07/10 12:24:46;;;;;;;6.60;3.30;;;11.20;99.90;;;;;;5031156;28;20202;-87
2022/07/10 12:27:45;;;;;;;6.03;3.50;;;11.30;99.90;;;;;;5030501;28;20672;-86
2022/07/10 12:30:16;;;;;;;9.63;3.50;;;11.30;99.90;;;;;;5023552;28;20695;-86
2022/07/10 12:32:47;;;;;;;5.75;3.38;;;11.40;99.90;;;;;;5032089;28;20194;-89
2022/07/10 12:35:21;;;;;;;6.35;3.63;;;11.20;99.90;;;;;;5032224;28;20214;-85
2022/07/10 12:37:52;;;;;;;9.40;3.50;;;11.20;99.90;;;;;;5026938;28;20202;-86
2022/07/10 12:40:35;;;;;;;7.45;3.35;;;11.30;99.90;;;;;;5030611;28;20186;-87
2022/07/10 12:43:10;;;;;;;5.47;3.38;;;11.20;99.90;;;;;;5028298;28;20232;-86
2022/07/10 12:45:41;;;;;;;7.13;3.60;;;11.20;99.90;;;;;;5025715;28;20636;-87
2022/07/10 12:48:25;;;;;;;7.90;3.22;;;11.30;99.90;;;;;;5024978;28;20199;-87
2022/07/10 12:50:57;;;;;;;7.88;3.67;;;11.20;99.90;;;;;;5025524;28;20218;-87
2022/07/10 12:53:28;;;;;;;8.15;3.30;;;11.30;99.90;;;;;;5030249;28;20205;-88
2022/07/10 12:55:59;;;;;;;8.30;2.90;;;11.20;99.90;;;;;;5032651;28;20190;-87
2022/07/10 12:58:30;;;;;;;8.93;3.30;;;11.30;99.90;;;;;;5025598;28;20203;-88
2022/07/10 13:01:01;;;;;;;7.63;2.83;;;11.30;99.90;;;;;;5031773;28;20210;-88
2022/07/10 13:03:32;;;;;;;7.18;3.17;;;11.30;99.90;;;;;;5023860;28;20198;-87
2022/07/10 13:06:05;;;;;;;6.03;2.75;;;11.20;99.90;;;;;;5029279;28;20202;-87
2022/07/10 13:08:48;;;;;;;8.27;3.10;;;11.20;99.90;;;;;;5030748;28;20256;-87
2022/07/10 13:11:19;;;;;;;6.00;2.42;;;11.20;99.90;;;;;;5029196;28;20292;-87
2022/07/10 13:13:50;;;;;;;8.40;2.35;;;11.10;99.90;;;;;;5021644;28;20183;-86
2022/07/10 13:16:21;;;;;;;4.45;2.42;;;11.10;99.90;;;;;;5021042;28;20194;-88
2022/07/10 13:18:51;;;;;;;7.32;2.63;;;11.10;99.90;;;;;;5013536;28;20221;-85
2022/07/10 13:21:24;;;;;;;5.97;2.15;;;11.10;99.90;;;;;;5021266;28;20214;-86